Time;durP1;ratioP1;P1;durP2;ratioP2;P2;SDS_P1;SDS_P2;PMS_P1;PMS_P2;Temp;Humidity;BMP_temperature;BMP_pressure;BME280_temperature;BME280_humidity;BME280_pressure;Samples;Min_cycle;Max_cycle;Signal;HPM_P1;HPM_P2
2022/04/26 03:36:58;;;;;;;9.33;6.63;;;3.10;93.90;;;;;;5073816;28;20762;-82
2022/04/26 03:39:25;;;;;;;10.13;7.20;;;3.10;93.80;;;;;;5100754;28;20233;-82
2022/04/26 03:41:52;;;;;;;9.07;6.93;;;3.10;93.80;;;;;;5107464;28;20223;-82
2022/04/26 03:44:19;;;;;;;11.00;7.00;;;3.10;94.00;;;;;;5100556;28;20226;-82
2022/04/26 03:46:46;;;;;;;11.97;7.63;;;3.10;94.00;;;;;;5103325;27;20251;-82
2022/04/26 03:49:13;;;;;;;9.17;7.03;;;3.10;94.10;;;;;;5103874;28;20227;-82
2022/04/26 03:51:41;;;;;;;11.37;7.50;;;3.20;94.20;;;;;;5098125;27;20231;-81
2022/04/26 03:54:08;;;;;;;11.50;8.20;;;3.20;94.20;;;;;;5098657;28;20222;-83
2022/04/26 03:56:35;;;;;;;11.00;7.10;;;3.20;94.40;;;;;;5104628;27;20231;-82
2022/04/26 03:59:01;;;;;;;10.20;7.33;;;3.20;94.40;;;;;;5101509;27;20227;-82
2022/04/26 04:01:28;;;;;;;10.37;7.57;;;3.20;94.50;;;;;;5101920;28;20321;-82
2022/04/26 04:03:55;;;;;;;12.23;7.43;;;3.30;94.40;;;;;;5103868;27;20333;-82
2022/04/26 04:06:23;;;;;;;9.00;6.97;;;3.30;94.50;;;;;;5104979;28;20556;-84
2022/04/26 04:08:51;;;;;;;11.33;7.17;;;3.30;94.50;;;;;;5103239;28;20259;-82
2022/04/26 04:11:18;;;;;;;10.43;7.63;;;3.40;94.50;;;;;;5103230;28;20222;-83
2022/04/26 04:13:45;;;;;;;9.80;7.60;;;3.40;94.70;;;;;;5099447;27;20227;-82
2022/04/26 04:16:11;;;;;;;11.13;7.37;;;3.40;94.60;;;;;;5109965;27;20314;-82
2022/04/26 04:21:22;;;;;;;11.00;7.73;;;3.50;94.70;;;;;;5102312;27;20346;-83
2022/04/26 04:23:49;;;;;;;12.63;7.67;;;3.50;94.60;;;;;;5107655;27;20255;-83
2022/04/26 04:26:17;;;;;;;10.80;7.30;;;3.50;94.50;;;;;;5101836;28;20223;-84
2022/04/26 04:28:44;;;;;;;15.87;8.83;;;3.50;94.70;;;;;;5105333;28;20230;-82
2022/04/26 04:31:11;;;;;;;9.77;7.37;;;3.60;94.70;;;;;;5105376;27;20212;-80
2022/04/26 04:33:38;;;;;;;13.40;8.47;;;3.60;94.70;;;;;;5100937;28;20239;-83
2022/04/26 04:36:05;;;;;;;13.30;8.20;;;3.60;94.70;;;;;;5108011;28;20317;-81
2022/04/26 04:38:32;;;;;;;11.13;8.07;;;3.70;94.90;;;;;;5104003;28;20225;-79
2022/04/26 04:40:59;;;;;;;9.50;7.10;;;3.80;95.10;;;;;;5101364;28;20215;-78
2022/04/26 04:43:27;;;;;;;10.13;7.90;;;3.80;95.20;;;;;;5102664;28;20318;-80
2022/04/26 04:45:54;;;;;;;12.00;7.87;;;3.90;95.30;;;;;;5104506;27;20220;-79
2022/04/26 04:48:21;;;;;;;11.73;7.77;;;4.00;95.10;;;;;;5099993;28;20227;-79
2022/04/26 04:50:48;;;;;;;11.93;7.90;;;4.10;94.90;;;;;;5103053;28;20225;-80
2022/04/26 04:53:17;;;;;;;12.90;7.73;;;4.20;94.90;;;;;;5103067;28;21118;-79
2022/04/26 04:55:44;;;;;;;9.47;7.20;;;4.20;94.80;;;;;;5101050;28;20224;-81
2022/04/26 04:58:11;;;;;;;10.00;7.10;;;4.30;94.80;;;;;;5103937;27;20757;-80
2022/04/26 05:00:39;;;;;;;11.77;7.40;;;4.30;94.70;;;;;;5106910;28;20227;-79
2022/04/26 05:03:05;;;;;;;14.63;9.00;;;4.40;94.60;;;;;;5103801;27;20656;-80
2022/04/26 05:05:32;;;;;;;13.20;7.60;;;4.40;94.70;;;;;;5108796;28;20224;-83
2022/04/26 05:07:59;;;;;;;11.90;7.93;;;4.50;94.70;;;;;;5108719;27;20230;-81
2022/04/26 05:10:26;;;;;;;11.97;8.17;;;4.50;94.70;;;;;;5107717;27;20847;-81
2022/04/26 05:12:53;;;;;;;12.63;8.13;;;4.60;95.10;;;;;;5121230;27;20243;-82
2022/04/26 05:15:22;;;;;;;9.60;6.80;;;4.70;94.50;;;;;;5099872;28;20224;-80
2022/04/26 05:17:50;;;;;;;10.03;7.57;;;4.70;94.70;;;;;;5103779;27;20228;-80
2022/04/26 05:20:17;;;;;;;11.00;7.80;;;4.80;94.70;;;;;;5103868;28;20318;-80
2022/04/26 05:25:38;;;;;;;9.87;7.23;;;4.90;94.60;;;;;;5062193;28;20230;-80
2022/04/26 05:28:05;;;;;;;10.07;7.90;;;5.00;94.50;;;;;;5087059;28;20288;-80
2022/04/26 05:30:32;;;;;;;11.10;8.27;;;5.10;94.70;;;;;;5103401;28;20231;-80
2022/04/26 05:33:00;;;;;;;13.67;9.17;;;5.20;94.80;;;;;;5106872;28;20219;-80
2022/04/26 05:35:26;;;;;;;16.00;9.47;;;5.20;94.60;;;;;;5107852;28;20596;-80
2022/04/26 05:37:53;;;;;;;11.90;8.67;;;5.30;94.60;;;;;;5108516;28;20455;-80
2022/04/26 05:40:20;;;;;;;12.30;8.47;;;5.40;94.60;;;;;;5099908;28;20247;-80
2022/04/26 05:42:47;;;;;;;12.10;8.63;;;5.50;94.70;;;;;;5104902;28;20237;-80
2022/04/26 05:45:14;;;;;;;15.80;9.43;;;5.50;94.70;;;;;;5107371;27;20229;-80
2022/04/26 05:47:45;;;;;;;10.80;7.87;;;5.60;94.70;;;;;;5106054;28;20718;-80
2022/04/26 05:50:13;;;;;;;11.80;8.00;;;5.80;94.80;;;;;;5105396;28;20224;-80
2022/04/26 05:52:41;;;;;;;14.07;8.30;;;5.90;94.80;;;;;;5106052;28;20229;-80
2022/04/26 05:55:09;;;;;;;11.80;8.77;;;5.90;94.70;;;;;;5107769;28;20228;-80
2022/04/26 05:57:38;;;;;;;13.67;8.47;;;6.10;94.70;;;;;;5105900;28;20325;-80
2022/04/26 06:00:06;;;;;;;12.43;8.37;;;6.20;94.60;;;;;;5108386;27;20561;-80
2022/04/26 06:02:39;;;;;;;11.50;7.87;;;6.20;94.50;;;;;;5107545;28;20233;-80
2022/04/26 06:05:07;;;;;;;13.23;8.30;;;6.30;94.40;;;;;;5106419;28;20256;-80
2022/04/26 06:07:35;;;;;;;11.23;8.10;;;6.50;94.50;;;;;;5107786;28;20287;-80
2022/04/26 06:10:02;;;;;;;11.87;7.93;;;6.60;94.50;;;;;;5105601;28;20232;-80
2022/04/26 06:12:29;;;;;;;11.73;8.07;;;6.70;94.60;;;;;;5108014;28;20289;-80
2022/04/26 06:14:56;;;;;;;13.60;7.93;;;6.90;94.60;;;;;;5107369;28;20592;-80
2022/04/26 06:17:22;;;;;;;13.73;8.37;;;7.10;94.50;;;;;;5102170;28;20300;-80
2022/04/26 06:19:49;;;;;;;10.47;8.30;;;7.30;94.50;;;;;;5097236;28;20229;-80
2022/04/26 06:22:16;;;;;;;10.93;8.10;;;7.50;94.90;;;;;;5106785;28;20771;-81
2022/04/26 06:24:44;;;;;;;11.97;7.40;;;7.80;95.40;;;;;;5106601;28;20240;-81
2022/04/26 06:27:11;;;;;;;8.50;7.33;;;8.30;95.50;;;;;;5107101;28;20233;-80
2022/04/26 06:29:38;;;;;;;10.77;7.40;;;8.80;95.40;;;;;;5105810;28;20663;-81
2022/04/26 06:32:05;;;;;;;9.70;8.00;;;9.30;94.60;;;;;;5107884;28;20253;-81
2022/04/26 06:34:32;;;;;;;9.23;7.00;;;9.80;93.40;;;;;;5105861;28;20235;-81
2022/04/26 06:37:01;;;;;;;9.73;7.40;;;10.20;92.80;;;;;;5107838;28;20258;-81
2022/04/26 06:39:28;;;;;;;9.50;7.00;;;10.50;91.90;;;;;;5107064;28;20246;-80
2022/04/26 06:41:57;;;;;;;10.17;7.10;;;10.60;91.10;;;;;;5106180;28;20310;-80
2022/04/26 06:44:25;;;;;;;9.80;7.30;;;10.60;90.70;;;;;;5100512;28;20226;-80
2022/04/26 06:46:52;;;;;;;8.33;6.87;;;10.60;90.60;;;;;;5110396;27;20865;-81
2022/04/26 06:49:19;;;;;;;11.00;6.87;;;10.60;90.80;;;;;;5108591;28;20283;-81
2022/04/26 06:51:46;;;;;;;10.60;7.20;;;10.60;90.60;;;;;;5111446;28;20220;-81
2022/04/26 06:54:12;;;;;;;10.30;7.73;;;10.70;91.00;;;;;;5102316;27;21092;-80
2022/04/26 06:56:41;;;;;;;10.30;7.43;;;10.80;90.90;;;;;;5110946;27;20560;-81
2022/04/26 06:59:09;;;;;;;10.07;7.43;;;10.90;91.00;;;;;;5110744;28;20358;-81
2022/04/26 07:01:35;;;;;;;11.27;7.20;;;11.10;90.90;;;;;;5110802;28;20320;-81
2022/04/26 07:04:02;;;;;;;10.23;7.73;;;11.30;90.90;;;;;;5105825;28;20305;-81
2022/04/26 07:06:29;;;;;;;9.57;7.37;;;11.50;90.70;;;;;;5109829;27;20237;-81
2022/04/26 07:08:56;;;;;;;10.80;7.17;;;11.70;90.20;;;;;;5108958;28;20249;-81
2022/04/26 07:11:23;;;;;;;10.03;6.93;;;11.80;88.90;;;;;;5103679;28;20254;-81
2022/04/26 07:13:52;;;;;;;8.67;6.60;;;12.00;88.90;;;;;;5105662;28;20246;-81
2022/04/26 07:16:20;;;;;;;7.67;6.67;;;12.10;89.70;;;;;;5109983;28;20246;-81
2022/04/26 07:18:49;;;;;;;9.50;6.60;;;12.30;87.90;;;;;;5110283;27;20224;-81
2022/04/26 07:21:16;;;;;;;8.47;6.77;;;12.60;87.60;;;;;;5108480;28;20397;-81
2022/04/26 07:23:42;;;;;;;9.70;6.97;;;13.00;87.70;;;;;;5108739;28;20781;-81
2022/04/26 07:26:09;;;;;;;9.23;7.03;;;13.40;87.00;;;;;;5108894;28;20377;-78
2022/04/26 07:28:36;;;;;;;11.77;7.50;;;13.80;85.10;;;;;;5110465;28;20271;-79
2022/04/26 07:31:04;;;;;;;10.83;7.37;;;14.20;83.80;;;;;;5108149;28;20296;-78
2022/04/26 07:36:22;;;;;;;9.80;7.10;;;14.80;82.00;;;;;;5090893;27;20368;-79
2022/04/26 07:38:50;;;;;;;9.60;6.40;;;15.20;82.80;;;;;;5106216;28;20233;-78
2022/04/26 07:41:17;;;;;;;9.17;6.60;;;15.60;80.40;;;;;;5110154;27;20247;-79
2022/04/26 07:43:44;;;;;;;8.43;5.90;;;16.00;78.70;;;;;;5104121;28;20233;-79
2022/04/26 07:46:14;;;;;;;12.73;6.60;;;16.40;77.20;;;;;;5103075;28;20728;-79
2022/04/26 07:48:43;;;;;;;7.20;5.73;;;16.70;74.40;;;;;;5110611;27;20856;-78
2022/04/26 07:51:11;;;;;;;11.65;6.00;;;17.00;74.80;;;;;;5103487;28;20218;-79
2022/04/26 07:53:38;;;;;;;8.57;6.47;;;17.20;74.60;;;;;;5108893;28;20233;-82
2022/04/26 07:56:10;;;;;;;7.20;5.88;;;17.50;74.50;;;;;;5104721;28;20666;-81
2022/04/26 07:58:37;;;;;;;6.63;5.35;;;18.00;74.20;;;;;;5108595;27;20222;-82
2022/04/26 08:01:04;;;;;;;11.45;6.35;;;18.40;73.20;;;;;;5109388;27;20242;-79
2022/04/26 08:03:33;;;;;;;8.27;6.47;;;18.90;71.80;;;;;;5104053;28;20699;-79
2022/04/26 08:06:02;;;;;;;8.38;5.82;;;19.50;70.70;;;;;;5098162;27;21293;-78
2022/04/26 08:08:29;;;;;;;8.80;6.50;;;20.00;67.00;;;;;;5105808;28;20238;-79
2022/04/26 08:10:56;;;;;;;6.93;6.20;;;20.30;64.70;;;;;;5107478;28;20218;-79
2022/04/26 08:13:22;;;;;;;8.40;6.15;;;20.50;64.60;;;;;;5108562;28;20230;-79
2022/04/26 08:15:49;;;;;;;6.35;5.22;;;20.70;63.00;;;;;;5107471;28;20892;-79
2022/04/26 08:18:16;;;;;;;6.07;5.30;;;20.80;61.80;;;;;;5109341;28;20234;-79
2022/04/26 08:20:44;;;;;;;5.95;5.32;;;20.90;59.80;;;;;;5105480;28;20264;-79
2022/04/26 08:23:12;;;;;;;6.53;5.20;;;21.00;58.10;;;;;;5106818;28;20230;-79
2022/04/26 08:28:24;;;;;;;6.55;5.05;;;20.80;58.00;;;;;;5101436;28;20835;-79
2022/04/26 08:30:51;;;;;;;6.32;5.13;;;20.70;58.50;;;;;;5108787;28;20226;-79
2022/04/26 08:33:18;;;;;;;5.63;4.93;;;20.80;59.30;;;;;;5107184;28;20229;-79
2022/04/26 08:35:45;;;;;;;5.65;4.75;;;21.00;59.70;;;;;;5108663;28;20234;-79
2022/04/26 08:38:13;;;;;;;6.38;4.50;;;21.40;57.90;;;;;;5106166;28;20317;-79
2022/04/26 08:40:42;;;;;;;5.50;4.25;;;21.70;58.20;;;;;;5106472;28;20690;-79
2022/04/26 08:43:09;;;;;;;4.43;4.03;;;22.00;57.10;;;;;;5096765;28;20239;-79
2022/04/26 08:45:38;;;;;;;5.20;3.80;;;22.20;56.20;;;;;;5099965;27;20770;-79
2022/04/26 08:51:05;;;;;;;5.18;3.60;;;22.70;55.10;;;;;;5105502;28;20222;-79
2022/04/26 08:53:35;;;;;;;5.00;3.97;;;23.10;55.80;;;;;;5105774;28;20231;-79
2022/04/26 08:56:06;;;;;;;4.90;3.53;;;23.40;54.40;;;;;;5097457;28;20796;-79
2022/04/26 08:58:34;;;;;;;7.25;3.85;;;23.70;53.90;;;;;;5097595;28;20714;-78
2022/04/26 09:01:07;;;;;;;4.45;3.63;;;23.90;52.70;;;;;;5107587;27;20808;-79
2022/04/26 09:03:36;;;;;;;4.10;3.63;;;23.90;51.50;;;;;;5107382;28;20306;-79
2022/04/26 09:06:05;;;;;;;4.68;3.90;;;24.00;51.40;;;;;;5105406;28;20304;-79
2022/04/26 09:08:33;;;;;;;4.57;4.18;;;23.90;51.20;;;;;;5107336;27;20222;-79
2022/04/26 09:11:01;;;;;;;4.25;3.67;;;23.90;51.00;;;;;;5106787;27;20226;-79
2022/04/26 09:13:28;;;;;;;5.15;4.28;;;24.00;51.70;;;;;;5106828;27;20770;-80
2022/04/26 09:15:56;;;;;;;4.13;3.45;;;24.10;50.60;;;;;;5107370;27;20226;-79
2022/04/26 09:18:26;;;;;;;7.50;3.72;;;24.30;50.10;;;;;;5100051;28;20234;-79
2022/04/26 09:20:56;;;;;;;4.32;3.85;;;24.40;49.70;;;;;;5102907;28;20408;-79
2022/04/26 09:23:24;;;;;;;4.20;3.40;;;24.70;49.90;;;;;;5106932;28;20263;-79
2022/04/26 09:26:06;;;;;;;4.18;3.78;;;24.80;49.70;;;;;;5098609;28;20230;-79
2022/04/26 09:28:33;;;;;;;4.72;2.90;;;25.10;47.30;;;;;;5101965;28;20230;-79
2022/04/26 09:30:59;;;;;;;5.97;3.53;;;25.30;47.60;;;;;;5104513;28;20267;-79
2022/04/26 09:33:38;;;;;;;3.42;3.13;;;25.40;47.80;;;;;;5107328;28;21537;-79
2022/04/26 09:36:06;;;;;;;4.28;3.17;;;25.50;46.70;;;;;;5100750;28;20301;-80
2022/04/26 09:38:33;;;;;;;4.78;3.38;;;25.60;45.30;;;;;;5105170;28;20245;-79
2022/04/26 09:41:04;;;;;;;3.55;3.20;;;25.50;46.00;;;;;;5105015;28;20230;-79
2022/04/26 09:43:31;;;;;;;3.35;3.05;;;25.50;45.90;;;;;;5106037;27;20265;-79
2022/04/26 09:45:59;;;;;;;4.35;3.10;;;25.60;46.50;;;;;;5099337;28;20214;-79
2022/04/26 09:48:27;;;;;;;5.13;3.28;;;25.70;46.10;;;;;;5091951;28;20229;-80
2022/04/26 09:50:56;;;;;;;5.22;3.10;;;26.00;46.00;;;;;;5099893;28;20226;-80
2022/04/26 09:53:23;;;;;;;3.83;3.17;;;26.20;45.60;;;;;;5109007;27;20213;-79
2022/04/26 09:55:50;;;;;;;3.95;3.55;;;26.40;45.00;;;;;;5106265;28;20226;-79
2022/04/26 09:58:20;;;;;;;3.90;3.50;;;26.50;42.00;;;;;;5105157;28;20225;-79
2022/04/26 10:00:49;;;;;;;4.03;3.63;;;26.50;42.90;;;;;;5105127;28;20218;-79
2022/04/26 10:03:20;;;;;;;3.95;3.63;;;26.40;43.60;;;;;;5103900;28;20229;-79
2022/04/26 10:05:50;;;;;;;4.40;3.67;;;26.20;43.70;;;;;;5104716;28;20349;-79
2022/04/26 10:08:19;;;;;;;5.53;3.53;;;26.10;42.50;;;;;;5103494;28;20480;-79
2022/04/26 10:10:47;;;;;;;4.30;3.58;;;26.10;42.50;;;;;;5100931;28;20685;-79
2022/04/26 10:13:36;;;;;;;4.18;3.70;;;26.00;43.40;;;;;;5105689;28;20218;-80
2022/04/26 10:16:08;;;;;;;4.35;3.97;;;25.90;43.20;;;;;;5099893;28;20253;-80
2022/04/26 10:18:39;;;;;;;4.68;3.95;;;26.00;42.60;;;;;;5107157;28;20741;-79
2022/04/26 10:21:07;;;;;;;4.75;3.90;;;26.10;42.40;;;;;;5100059;28;20756;-79
2022/04/26 10:24:12;;;;;;;5.45;3.83;;;26.10;43.70;;;;;;5102489;28;20287;-79
2022/04/26 10:26:39;;;;;;;5.75;3.70;;;26.10;42.50;;;;;;5107469;28;20279;-79
2022/04/26 10:29:14;;;;;;;4.88;3.58;;;26.10;43.10;;;;;;5109347;28;20283;-79
2022/04/26 10:31:44;;;;;;;4.90;3.67;;;26.20;42.50;;;;;;5108520;28;20236;-80
2022/04/26 10:34:25;;;;;;;4.30;3.75;;;26.20;42.30;;;;;;5107974;28;20233;-79
2022/04/26 10:36:53;;;;;;;3.60;3.30;;;26.30;41.70;;;;;;5109413;28;20237;-80
2022/04/26 10:39:25;;;;;;;4.82;4.32;;;26.40;42.80;;;;;;5109191;28;20225;-79
2022/04/26 10:41:53;;;;;;;4.85;4.30;;;26.50;41.30;;;;;;5110204;28;20237;-79
2022/04/26 10:44:38;;;;;;;5.43;3.80;;;26.40;40.10;;;;;;5098129;28;20804;-79
2022/04/26 10:47:36;;;;;;;4.65;4.25;;;26.20;40.00;;;;;;5104527;28;20274;-79
2022/04/26 10:50:12;;;;;;;5.03;3.80;;;25.60;40.30;;;;;;5110312;27;20225;-79
2022/04/26 10:52:43;;;;;;;4.13;3.72;;;25.00;40.10;;;;;;5106968;28;20320;-79
2022/04/26 10:55:15;;;;;;;4.38;3.90;;;24.40;40.70;;;;;;5105563;28;20261;-79
2022/04/26 10:57:44;;;;;;;6.68;5.30;;;23.80;41.40;;;;;;5109720;27;20226;-79
2022/04/26 11:00:15;;;;;;;5.43;3.58;;;23.40;42.00;;;;;;5108522;27;20316;-80
2022/04/26 11:02:45;;;;;;;4.90;4.22;;;23.10;42.00;;;;;;5100481;28;20226;-80
2022/04/26 11:05:13;;;;;;;4.50;3.78;;;22.80;42.00;;;;;;5107439;27;20521;-79
2022/04/26 11:07:42;;;;;;;4.47;3.30;;;22.70;42.40;;;;;;5106096;28;20682;-79
2022/04/26 11:10:10;;;;;;;5.05;3.75;;;22.70;42.70;;;;;;5104009;28;20749;-79
2022/04/26 11:12:38;;;;;;;4.18;3.72;;;22.70;42.60;;;;;;5106095;28;20226;-80
2022/04/26 11:15:08;;;;;;;6.35;4.30;;;22.70;42.20;;;;;;5105474;28;20240;-79
2022/04/26 11:17:35;;;;;;;7.82;4.10;;;22.60;41.30;;;;;;5105257;28;20790;-79
2022/04/26 11:20:06;;;;;;;4.47;3.72;;;22.50;41.60;;;;;;5105941;28;20226;-79
2022/04/26 11:22:33;;;;;;;4.60;4.13;;;22.40;41.60;;;;;;5101385;28;20294;-79
2022/04/26 11:28:03;;;;;;;4.60;4.10;;;22.10;41.90;;;;;;5104889;28;20773;-79
2022/04/26 11:30:33;;;;;;;4.03;3.63;;;22.20;42.50;;;;;;5103797;28;20325;-79
2022/04/26 11:33:01;;;;;;;4.40;4.00;;;22.30;42.50;;;;;;5105919;28;20330;-79
2022/04/26 11:35:29;;;;;;;4.53;3.85;;;22.50;42.70;;;;;;5107256;28;20245;-80
2022/04/26 11:38:04;;;;;;;4.22;3.70;;;22.70;41.90;;;;;;5106233;28;20245;-79
2022/04/26 11:40:32;;;;;;;3.65;3.25;;;22.90;42.30;;;;;;5104809;27;20731;-80
2022/04/26 11:43:05;;;;;;;3.88;3.42;;;23.00;42.30;;;;;;5099371;28;20226;-80
2022/04/26 11:45:35;;;;;;;5.75;3.60;;;23.00;41.90;;;;;;5100777;27;20230;-79
2022/04/26 11:48:01;;;;;;;3.92;3.53;;;23.00;41.30;;;;;;5108222;28;20221;-80
2022/04/26 11:50:31;;;;;;;3.55;3.25;;;22.90;41.20;;;;;;5099278;28;20707;-80
2022/04/26 11:53:01;;;;;;;4.88;4.28;;;22.70;40.50;;;;;;5099079;28;20222;-79
2022/04/26 11:55:30;;;;;;;4.43;4.03;;;22.40;40.50;;;;;;5104419;28;20240;-79
2022/04/26 11:58:14;;;;;;;4.20;3.63;;;22.10;41.00;;;;;;5106620;27;20228;-79
2022/04/26 12:00:59;;;;;;;4.90;3.38;;;21.70;41.30;;;;;;5102238;28;20381;-79
2022/04/26 12:03:28;;;;;;;3.70;3.40;;;21.50;42.00;;;;;;5104272;28;20251;-79
2022/04/26 12:05:59;;;;;;;4.68;3.67;;;21.20;42.10;;;;;;5110784;27;20218;-79
2022/04/26 12:08:27;;;;;;;4.15;3.42;;;21.10;42.00;;;;;;5105165;28;20225;-79
2022/04/26 12:10:55;;;;;;;4.57;3.33;;;20.90;42.30;;;;;;5102989;28;20215;-79
2022/04/26 12:13:33;;;;;;;5.40;3.63;;;20.80;42.40;;;;;;5103771;28;20214;-80
2022/04/26 12:16:18;;;;;;;4.00;3.65;;;20.80;42.70;;;;;;5101463;28;20225;-79
2022/04/26 12:18:52;;;;;;;5.18;3.00;;;20.90;43.60;;;;;;5107035;28;20237;-80
2022/04/26 12:21:21;;;;;;;3.65;3.35;;;21.20;43.00;;;;;;5104444;28;20309;-80
2022/04/26 12:23:48;;;;;;;3.72;3.00;;;21.50;42.70;;;;;;5105835;28;20230;-80
2022/04/26 12:26:15;;;;;;;4.80;3.35;;;22.00;42.90;;;;;;5103499;27;20222;-80
2022/04/26 12:28:49;;;;;;;4.63;2.78;;;22.40;42.70;;;;;;5106490;28;20230;-80
2022/04/26 12:31:26;;;;;;;3.80;3.40;;;22.90;42.80;;;;;;5100425;27;20228;-80
2022/04/26 12:34:12;;;;;;;4.10;3.70;;;23.40;41.70;;;;;;5104981;28;20233;-80
2022/04/26 12:37:07;;;;;;;3.55;3.25;;;23.70;41.60;;;;;;5094714;27;20682;-79
2022/04/26 12:39:44;;;;;;;6.38;3.22;;;23.70;40.20;;;;;;5088483;28;20230;-79
2022/04/26 12:42:13;;;;;;;4.60;3.17;;;23.60;39.80;;;;;;5103233;28;20785;-80
2022/04/26 12:44:50;;;;;;;4.03;3.63;;;23.20;39.80;;;;;;5098551;28;20326;-80
2022/04/26 12:52:52;;;;;;;4.63;3.60;;;22.10;40.70;;;;;;5106304;28;20709;-79
2022/04/26 12:55:30;;;;;;;3.55;3.25;;;21.80;40.80;;;;;;5101904;28;20228;-79
2022/04/26 12:57:58;;;;;;;5.07;3.60;;;21.50;40.80;;;;;;5099650;28;20221;-79
2022/04/26 13:00:26;;;;;;;8.10;3.20;;;21.30;41.10;;;;;;5106312;28;20230;-79
2022/04/26 13:02:55;;;;;;;3.90;3.50;;;21.10;41.50;;;;;;5106510;28;20740;-79
2022/04/26 13:05:21;;;;;;;3.97;3.58;;;20.90;41.70;;;;;;5106026;27;20232;-79
2022/04/26 13:07:52;;;;;;;4.10;3.45;;;20.80;41.60;;;;;;5106692;28;20233;-79
2022/04/26 13:10:20;;;;;;;5.18;3.80;;;20.70;42.10;;;;;;5100445;28;20955;-79
2022/04/26 13:12:47;;;;;;;5.20;3.40;;;20.60;42.00;;;;;;5103624;28;20874;-79
2022/04/26 13:15:15;;;;;;;5.72;4.22;;;20.50;41.90;;;;;;5103462;28;20884;-79
2022/04/26 13:17:43;;;;;;;4.60;3.80;;;20.40;41.20;;;;;;5111654;27;20228;-79
2022/04/26 13:20:11;;;;;;;4.57;3.60;;;20.30;41.60;;;;;;5109054;27;20233;-79
2022/04/26 13:22:39;;;;;;;6.55;3.70;;;20.30;41.80;;;;;;5098773;28;20655;-79
2022/04/26 13:25:08;;;;;;;5.03;3.80;;;20.20;42.00;;;;;;5098968;28;20229;-79
2022/04/26 13:27:37;;;;;;;5.45;3.65;;;20.20;42.10;;;;;;5103990;28;20229;-79
2022/04/26 13:30:06;;;;;;;4.97;3.47;;;20.10;41.80;;;;;;5099221;28;20444;-79
2022/04/26 13:32:33;;;;;;;4.88;3.63;;;20.10;41.90;;;;;;5104297;27;20661;-79
2022/04/26 13:35:00;;;;;;;4.78;3.70;;;20.00;42.10;;;;;;5104841;28;20240;-79
2022/04/26 13:37:28;;;;;;;5.78;3.58;;;19.90;41.70;;;;;;5104749;28;20313;-79
2022/04/26 13:39:57;;;;;;;3.70;3.40;;;19.70;41.50;;;;;;5107051;28;20226;-79
2022/04/26 13:42:27;;;;;;;3.45;3.15;;;19.60;41.80;;;;;;5092970;28;20221;-79
2022/04/26 13:44:54;;;;;;;3.88;3.55;;;19.40;41.70;;;;;;5105283;28;20214;-80
2022/04/26 13:47:21;;;;;;;4.80;3.47;;;19.20;41.80;;;;;;5104506;28;20229;-79
2022/04/26 13:49:48;;;;;;;4.88;3.30;;;19.10;42.80;;;;;;5100184;28;20230;-79
2022/04/26 13:52:17;;;;;;;3.97;3.40;;;19.00;42.30;;;;;;5102371;28;20312;-79
2022/04/26 13:54:44;;;;;;;3.40;2.50;;;19.00;42.70;;;;;;5105418;28;20328;-79
2022/04/26 13:57:11;;;;;;;7.10;2.90;;;18.90;42.90;;;;;;5094309;28;20600;-79
2022/04/26 13:59:39;;;;;;;4.93;3.10;;;18.90;42.90;;;;;;5103949;28;20854;-79
2022/04/26 14:02:07;;;;;;;6.40;3.50;;;19.00;43.00;;;;;;5097587;28;20222;-79
2022/04/26 14:04:34;;;;;;;3.63;3.08;;;19.10;43.30;;;;;;5095633;28;20799;-79
2022/04/26 14:07:02;;;;;;;3.75;2.97;;;19.20;43.20;;;;;;5106676;28;20973;-79
2022/04/26 14:09:29;;;;;;;3.95;3.28;;;19.30;42.80;;;;;;5098939;28;20233;-79
2022/04/26 14:11:56;;;;;;;4.85;2.92;;;19.30;42.30;;;;;;5099150;28;20221;-79
2022/04/26 14:22:42;;;;;;;4.25;2.80;;;19.10;41.60;;;;;;5099982;28;20954;-79
2022/04/26 14:25:11;;;;;;;4.07;3.05;;;19.00;41.60;;;;;;5103255;28;20244;-79
2022/04/26 14:27:39;;;;;;;3.97;2.97;;;18.90;41.30;;;;;;5100067;28;20230;-79
2022/04/26 14:30:08;;;;;;;4.15;3.17;;;18.90;41.60;;;;;;5102844;28;20218;-79
2022/04/26 14:32:37;;;;;;;2.97;2.70;;;18.70;41.90;;;;;;5102084;28;20241;-79
2022/04/26 14:35:05;;;;;;;3.55;3.25;;;18.60;42.40;;;;;;5102977;28;20242;-80
2022/04/26 14:37:33;;;;;;;4.07;3.22;;;18.60;42.90;;;;;;5104020;28;20294;-79
2022/04/26 14:40:00;;;;;;;4.05;3.65;;;18.70;42.90;;;;;;5112536;27;20622;-79
2022/04/26 14:42:28;;;;;;;4.15;3.40;;;18.90;42.50;;;;;;5106286;28;20222;-79
2022/04/26 14:44:55;;;;;;;5.57;3.42;;;19.10;42.60;;;;;;5105586;28;20229;-79
2022/04/26 14:47:22;;;;;;;3.83;3.42;;;19.40;42.60;;;;;;5105746;28;20233;-79
2022/04/26 14:49:51;;;;;;;3.88;3.47;;;19.60;42.40;;;;;;5106620;28;20255;-79
2022/04/26 14:52:21;;;;;;;3.92;3.08;;;19.90;42.40;;;;;;5105855;27;20250;-79
2022/04/26 14:54:48;;;;;;;4.30;3.63;;;20.10;42.40;;;;;;5098571;28;20237;-80
2022/04/26 14:57:17;;;;;;;5.65;4.22;;;20.30;42.20;;;;;;5106232;28;20956;-79
2022/04/26 14:59:49;;;;;;;6.82;4.03;;;20.40;42.00;;;;;;5103161;28;20507;-80
2022/04/26 15:02:17;;;;;;;9.38;4.10;;;20.50;42.20;;;;;;5099171;28;20226;-80
2022/04/26 15:04:45;;;;;;;6.10;3.85;;;20.60;42.20;;;;;;5101704;28;20233;-79
2022/04/26 15:07:13;;;;;;;4.38;3.97;;;20.60;42.00;;;;;;5104156;28;20233;-80
2022/04/26 15:09:47;;;;;;;4.13;3.72;;;20.70;42.20;;;;;;5105577;28;20245;-80
2022/04/26 15:17:48;;;;;;;5.63;3.80;;;20.60;41.70;;;;;;5105822;28;20252;-79
2022/04/26 15:20:16;;;;;;;4.25;3.85;;;20.50;41.90;;;;;;5102747;28;20227;-80
2022/04/26 15:22:44;;;;;;;6.85;4.30;;;20.40;41.80;;;;;;5105802;28;20230;-79
2022/04/26 15:25:11;;;;;;;4.55;3.88;;;20.30;41.70;;;;;;5101955;27;20792;-80
2022/04/26 15:27:39;;;;;;;4.68;4.22;;;20.20;41.50;;;;;;5102559;28;20224;-79
2022/04/26 15:30:08;;;;;;;4.32;3.50;;;20.10;41.30;;;;;;5098604;28;20263;-79
2022/04/26 15:32:36;;;;;;;4.55;3.88;;;20.00;41.60;;;;;;5104332;27;20252;-79
2022/04/26 15:35:02;;;;;;;4.53;3.45;;;19.90;41.90;;;;;;5108057;28;20678;-80
2022/04/26 15:37:29;;;;;;;3.80;3.40;;;19.80;41.80;;;;;;5105783;27;20226;-80
2022/04/26 15:39:58;;;;;;;3.78;3.47;;;19.70;41.40;;;;;;5107057;28;20646;-79
2022/04/26 15:42:25;;;;;;;4.25;3.22;;;19.60;41.40;;;;;;5105914;28;20245;-79
2022/04/26 15:44:52;;;;;;;5.10;3.90;;;19.50;41.70;;;;;;5105650;27;20226;-80
2022/04/26 15:47:21;;;;;;;5.15;3.70;;;19.30;41.80;;;;;;5100370;27;20214;-79
2022/04/26 15:49:48;;;;;;;7.47;3.50;;;19.20;42.10;;;;;;5101845;28;20408;-79
2022/04/26 15:52:15;;;;;;;5.00;3.50;;;19.00;42.30;;;;;;5096972;28;20230;-79
2022/04/26 15:54:43;;;;;;;4.72;3.53;;;18.90;42.60;;;;;;5097375;28;20218;-79
2022/04/26 15:57:11;;;;;;;4.40;3.55;;;18.80;42.50;;;;;;5104847;28;20223;-79
2022/04/26 15:59:39;;;;;;;5.22;3.42;;;18.70;42.50;;;;;;5100468;27;20249;-80
2022/04/26 16:02:07;;;;;;;4.47;3.45;;;18.60;42.50;;;;;;5101803;28;20230;-80
2022/04/26 16:04:35;;;;;;;6.55;4.13;;;18.60;42.70;;;;;;5095043;28;20226;-80
2022/04/26 16:07:02;;;;;;;4.40;3.60;;;18.60;42.70;;;;;;5099025;27;20431;-80
2022/04/26 16:20:32;;;;;;;4.60;3.50;;;18.20;42.90;;;;;;5113023;27;20285;-79
2022/04/26 16:22:59;;;;;;;4.00;3.53;;;18.00;42.90;;;;;;5091647;28;20286;-82
2022/04/26 16:25:26;;;;;;;3.80;3.50;;;17.90;42.90;;;;;;5101900;28;20260;-82
2022/04/26 16:27:54;;;;;;;3.80;3.40;;;17.80;43.10;;;;;;5100094;27;20312;-82
2022/04/26 16:30:21;;;;;;;3.73;3.33;;;17.60;43.20;;;;;;5093862;28;20245;-83
2022/04/26 16:32:48;;;;;;;4.87;3.77;;;17.40;43.40;;;;;;5104971;28;20837;-83
2022/04/26 16:35:17;;;;;;;4.37;3.63;;;17.30;43.40;;;;;;5094210;28;20238;-82
2022/04/26 16:37:44;;;;;;;4.40;3.20;;;17.10;43.60;;;;;;5098444;28;20228;-82
2022/04/26 16:40:11;;;;;;;4.77;3.60;;;17.00;44.10;;;;;;5101432;28;20244;-82
2022/04/26 16:42:39;;;;;;;3.53;2.80;;;16.90;44.30;;;;;;5101181;27;20229;-80
2022/04/26 16:45:08;;;;;;;3.13;2.77;;;16.80;44.60;;;;;;5104205;27;20236;-80
2022/04/26 16:47:35;;;;;;;4.20;2.97;;;16.70;44.50;;;;;;5102016;27;20706;-80
2022/04/26 16:50:04;;;;;;;4.43;3.27;;;16.60;44.20;;;;;;5100868;28;20221;-80
2022/04/26 16:52:31;;;;;;;3.37;2.87;;;16.60;44.20;;;;;;5104342;28;20237;-80
2022/04/26 16:54:57;;;;;;;3.57;2.50;;;16.50;44.00;;;;;;5103649;28;20329;-80
2022/04/26 16:57:26;;;;;;;3.93;2.77;;;16.40;44.50;;;;;;5102760;28;20313;-80
2022/04/26 16:59:52;;;;;;;4.43;3.07;;;16.30;44.40;;;;;;5102896;28;20233;-80
2022/04/26 17:02:20;;;;;;;5.30;3.20;;;16.20;44.60;;;;;;5098505;28;20325;-80
2022/04/26 17:04:47;;;;;;;5.10;3.97;;;16.20;44.90;;;;;;5094578;28;20383;-80
2022/04/26 17:07:14;;;;;;;5.23;3.50;;;16.10;45.10;;;;;;5098219;28;20214;-80
2022/04/26 17:09:41;;;;;;;6.60;3.93;;;16.00;45.80;;;;;;5114673;27;20234;-79
2022/04/26 17:12:10;;;;;;;7.80;3.43;;;16.00;46.20;;;;;;5101141;28;20232;-79
2022/04/26 17:14:39;;;;;;;6.20;3.83;;;15.90;46.50;;;;;;5104232;27;20233;-80
2022/04/26 17:17:06;;;;;;;5.57;4.00;;;15.80;46.80;;;;;;5116570;27;20229;-79
2022/04/26 17:19:34;;;;;;;4.90;3.83;;;15.70;47.00;;;;;;5102895;28;20261;-80